Hlavní strana
METAR-TAF:

METAR-TAF

Letiště :

As-Sawíra, Maroko

zeměpisná šířka: 31-31N, zeměpisná délka: 009-47W, výška: 15 m

Aktuální stav počasí

Zpráva byla vytvořena před 11 hodinami a 25 minutami, v 18:00 UTC
Severoseverozápadní vítr 8 kt
Teplota 23°C
Vlhkost vzduchu 61%
Tlak 1011 hPa
Viditelnost 10 km a více
Žádná oblačnost pod 1500 m, nevyskytují se cumulonimby.

METAR: GMMI 291800Z 34008KT CAVOK 23/15 Q1011 NOSIG

Čas: 06:25 (05:25 UTC)

Předpověď počasí

Zpráva byla vytvořena před 6 hodinami a 25 minutami, v 23:00 UTC
Předpověď platná od 30 v 00 UTC do 31 v 06 UTC
vítr z různých směrů 2 kt
Viditelnost: 8000 m
Polojasno ve výšce 1000 ft
Pravděpodobnost 30%
od 30 v 00 UTC do 30 v 06 UTC
Viditelnost: 3000 m
Zataženo ve výšce 800 ft
kouřmo

TAF: GMMI 292300Z 3000/3106 VRB02KT 8000 SCT010 PROB30 3000/3006 3000 BR OVC008

Stav a předpovědi počasí z více než 4 000 letišť (zprávy METAR a TAF).

Červené a žluté tečky na mapě představují dostupné meteorologické stanice.

Když kurzor umístíte na tečku, zobrazí se název stanice.

Pak kliknutím zobrazíte stav a předpověď počasí.

Chcete-li změnit mapu, kliknutím na zelené tlačítko se znaménkem +mapu přiblížíte, kliknutím na zelené tlačítko se znaménkem – mapu oddálíte a kliknutím na zelené šipky přejdete na sousední mapy.


METAR-TAF: